createdAt,value
2024-01-31T00:02:10.634Z,0.10
2024-01-31T00:04:40.949Z,0.10
2024-01-31T00:07:08.125Z,0.10
2024-01-31T00:09:35.142Z,0.00
2024-01-31T00:12:02.181Z,0.10
2024-01-31T00:14:29.273Z,0.10
2024-01-31T00:16:56.229Z,0.20
2024-01-31T00:19:24.222Z,0.20
2024-01-31T00:21:51.328Z,0.20
2024-01-31T00:24:18.255Z,0.20
2024-01-31T00:26:45.223Z,0.20
2024-01-31T00:29:12.364Z,0.20
2024-01-31T00:31:39.463Z,0.10
2024-01-31T00:34:06.683Z,0.10
2024-01-31T00:36:33.741Z,0.10
2024-01-31T00:39:03.741Z,0.10
2024-01-31T00:41:31.959Z,0.10
2024-01-31T00:43:59.333Z,0.10
2024-01-31T00:46:26.354Z,0.10
2024-01-31T00:48:53.652Z,0.00
2024-01-31T00:51:20.684Z,0.00
2024-01-31T00:53:48.706Z,0.00
2024-01-31T00:56:16.045Z,0.00
2024-01-31T00:58:42.944Z,0.10
2024-01-31T01:01:10.081Z,0.10
2024-01-31T01:03:37.199Z,0.10
2024-01-31T01:06:06.117Z,0.10
2024-01-31T01:08:33.141Z,0.10
2024-01-31T01:11:00.241Z,0.10
2024-01-31T01:13:27.358Z,0.20
2024-01-31T01:15:54.287Z,0.20
2024-01-31T01:18:21.568Z,0.20
2024-01-31T01:20:48.623Z,0.20
2024-01-31T01:23:16.491Z,0.20
2024-01-31T01:25:43.811Z,0.20
2024-01-31T01:28:11.086Z,0.30
2024-01-31T01:30:38.120Z,0.30
2024-01-31T01:33:05.431Z,0.40
2024-01-31T01:35:32.572Z,0.50
2024-01-31T01:37:59.603Z,0.50
2024-01-31T01:40:26.722Z,0.50
2024-01-31T01:42:53.913Z,0.50
2024-01-31T01:45:21.474Z,0.60
2024-01-31T01:47:52.284Z,0.60
2024-01-31T01:50:20.544Z,0.70
2024-01-31T01:52:48.667Z,0.70
2024-01-31T01:55:15.955Z,0.70
2024-01-31T01:57:43.280Z,0.70
2024-01-31T02:00:11.590Z,0.70
2024-01-31T02:02:42.886Z,0.70
2024-01-31T02:05:10.072Z,0.80
2024-01-31T02:07:38.183Z,0.80
2024-01-31T02:10:08.588Z,0.90
2024-01-31T02:12:35.580Z,1.00
2024-01-31T02:15:03.382Z,1.00
2024-01-31T02:17:31.628Z,0.90
2024-01-31T02:19:58.755Z,0.90
2024-01-31T02:22:25.970Z,0.90
2024-01-31T02:24:53.080Z,1.00
2024-01-31T02:27:21.307Z,1.10
2024-01-31T02:29:48.229Z,1.10
2024-01-31T02:32:15.282Z,1.20
2024-01-31T02:34:42.580Z,1.20
2024-01-31T02:37:09.619Z,1.20
2024-01-31T02:39:36.924Z,1.20
2024-01-31T02:42:04.372Z,1.30
2024-01-31T02:44:31.371Z,1.30
2024-01-31T02:46:58.566Z,1.30
2024-01-31T02:49:25.777Z,1.30
2024-01-31T02:51:53.949Z,1.30
2024-01-31T02:54:20.969Z,1.30
2024-01-31T02:56:48.124Z,1.30
2024-01-31T02:59:15.189Z,1.40
2024-01-31T03:01:46.321Z,1.50
2024-01-31T03:04:13.684Z,1.50
2024-01-31T03:06:41.222Z,1.50
2024-01-31T03:09:08.332Z,1.60
2024-01-31T03:11:35.260Z,1.60
2024-01-31T03:14:02.594Z,1.50
2024-01-31T03:16:29.539Z,1.60
2024-01-31T03:18:58.461Z,1.70
2024-01-31T03:21:25.581Z,1.80
2024-01-31T03:23:52.614Z,1.80
2024-01-31T03:26:19.683Z,2.00
2024-01-31T03:28:46.783Z,2.10
2024-01-31T03:31:13.960Z,2.30
2024-01-31T03:33:41.112Z,2.30
2024-01-31T03:36:12.303Z,2.40
2024-01-31T03:38:42.709Z,2.50
2024-01-31T03:41:09.824Z,2.60
2024-01-31T03:43:37.315Z,2.80
2024-01-31T03:46:08.246Z,2.90
2024-01-31T03:48:35.777Z,3.00
2024-01-31T03:51:03.153Z,2.90
2024-01-31T03:53:30.241Z,2.90
2024-01-31T03:55:57.231Z,3.00
2024-01-31T03:58:24.290Z,3.10
2024-01-31T04:00:51.402Z,3.20
2024-01-31T04:03:22.152Z,3.40
2024-01-31T04:05:50.334Z,3.60
2024-01-31T04:08:17.614Z,3.60
2024-01-31T04:10:44.667Z,3.70
2024-01-31T04:13:11.823Z,3.80
2024-01-31T04:15:38.891Z,3.80
2024-01-31T04:18:08.918Z,3.70
2024-01-31T04:20:39.995Z,3.70
2024-01-31T04:23:07.768Z,3.70
2024-01-31T04:25:35.457Z,3.70
2024-01-31T04:28:02.776Z,3.60
2024-01-31T04:30:31.443Z,3.60
2024-01-31T04:33:03.563Z,3.50
2024-01-31T04:35:30.871Z,3.50
2024-01-31T04:37:57.958Z,3.40
2024-01-31T04:40:25.024Z,3.30
2024-01-31T04:42:54.270Z,3.30
2024-01-31T04:45:21.759Z,3.20
2024-01-31T04:47:48.792Z,3.20
2024-01-31T04:50:16.035Z,3.20
2024-01-31T04:52:43.234Z,3.10
2024-01-31T04:55:10.897Z,3.10
2024-01-31T04:57:39.973Z,3.00
2024-01-31T05:00:08.576Z,3.00
2024-01-31T05:02:35.520Z,3.00
2024-01-31T05:05:02.714Z,3.00
2024-01-31T05:07:29.911Z,3.00
2024-01-31T05:09:57.315Z,3.00
2024-01-31T05:12:24.213Z,3.10
2024-01-31T05:14:51.209Z,3.00
2024-01-31T05:17:18.734Z,3.00
2024-01-31T05:19:45.904Z,3.00
2024-01-31T05:22:12.880Z,3.00
2024-01-31T05:24:41.022Z,3.00
2024-01-31T05:27:09.932Z,3.00
2024-01-31T05:29:37.181Z,3.00
2024-01-31T05:32:05.210Z,3.10
2024-01-31T05:34:32.264Z,3.10
2024-01-31T05:36:59.447Z,3.10
2024-01-31T05:39:26.589Z,3.10
2024-01-31T05:41:53.708Z,3.10
2024-01-31T05:44:22.378Z,3.10
2024-01-31T05:46:49.525Z,3.10
2024-01-31T05:49:16.911Z,3.20
2024-01-31T05:51:43.874Z,3.20
2024-01-31T05:54:10.906Z,3.20
2024-01-31T05:56:38.533Z,3.20
2024-01-31T05:59:07.313Z,3.20
2024-01-31T06:01:34.548Z,3.20
2024-01-31T06:04:04.064Z,3.20
2024-01-31T06:06:31.725Z,3.20
2024-01-31T06:08:58.788Z,3.20
2024-01-31T06:11:25.834Z,3.20
2024-01-31T06:13:52.783Z,3.20
2024-01-31T06:16:19.785Z,3.30
2024-01-31T06:18:46.783Z,3.30
2024-01-31T06:21:13.693Z,3.20
2024-01-31T06:23:40.669Z,3.20
2024-01-31T06:26:08.711Z,3.20
2024-01-31T06:28:39.998Z,3.20
2024-01-31T06:31:15.236Z,3.20
2024-01-31T06:33:43.316Z,3.20
2024-01-31T06:36:10.837Z,3.20
2024-01-31T06:38:38.150Z,3.20
2024-01-31T06:41:05.172Z,3.20
2024-01-31T06:43:32.166Z,3.20
2024-01-31T06:45:59.465Z,3.20
2024-01-31T06:48:26.540Z,3.20
2024-01-31T06:50:53.841Z,3.20
2024-01-31T06:53:20.842Z,3.20
2024-01-31T06:55:47.841Z,3.20
2024-01-31T06:58:15.304Z,3.20
2024-01-31T07:00:42.561Z,3.20
2024-01-31T07:03:09.617Z,3.20
2024-01-31T07:05:36.636Z,3.30
2024-01-31T07:08:03.816Z,3.30
2024-01-31T07:10:31.042Z,3.30
2024-01-31T07:12:58.322Z,3.30
2024-01-31T07:15:25.325Z,3.30
2024-01-31T07:17:52.373Z,3.30
2024-01-31T07:20:19.409Z,3.30
2024-01-31T07:22:46.651Z,3.30
2024-01-31T07:25:16.660Z,3.30
2024-01-31T07:27:46.149Z,3.30
2024-01-31T07:30:13.516Z,3.40
2024-01-31T07:32:41.566Z,3.40
2024-01-31T07:35:09.112Z,3.30
2024-01-31T07:37:39.921Z,3.30
2024-01-31T07:40:10.986Z,3.30
2024-01-31T07:42:41.314Z,3.30
2024-01-31T07:45:09.287Z,3.20
2024-01-31T07:47:39.097Z,3.30
2024-01-31T07:50:07.644Z,3.30
2024-01-31T07:52:36.212Z,3.40
2024-01-31T07:55:04.503Z,3.40
2024-01-31T07:57:31.917Z,3.40
2024-01-31T08:00:00.478Z,3.40
2024-01-31T08:02:27.529Z,3.40
2024-01-31T08:04:56.193Z,3.40
2024-01-31T08:07:23.422Z,3.40
2024-01-31T08:09:50.391Z,3.50
2024-01-31T08:12:18.576Z,3.40
2024-01-31T08:14:45.716Z,3.40
2024-01-31T08:17:12.697Z,3.40
2024-01-31T08:19:39.868Z,3.40
2024-01-31T08:22:07.609Z,3.40
2024-01-31T08:24:34.569Z,3.40
2024-01-31T08:27:01.575Z,3.40
2024-01-31T08:29:29.798Z,3.40
2024-01-31T08:31:56.945Z,3.40
2024-01-31T08:34:27.329Z,3.40
2024-01-31T08:36:56.882Z,3.40
2024-01-31T08:39:24.107Z,3.40
2024-01-31T08:41:51.302Z,3.40
2024-01-31T08:44:18.442Z,3.40
2024-01-31T08:46:57.898Z,3.40
2024-01-31T08:49:31.495Z,3.40
2024-01-31T08:51:58.577Z,3.50
2024-01-31T08:54:26.313Z,3.50
2024-01-31T08:56:53.356Z,3.50
2024-01-31T08:59:20.491Z,3.40
2024-01-31T09:01:47.959Z,3.40
2024-01-31T09:04:15.072Z,3.40
2024-01-31T09:06:44.918Z,3.50
2024-01-31T09:09:11.900Z,3.50
2024-01-31T09:11:39.408Z,3.50
2024-01-31T09:14:06.470Z,3.50
2024-01-31T09:16:34.881Z,3.60
2024-01-31T09:19:05.142Z,3.50
2024-01-31T09:21:32.400Z,3.60
2024-01-31T09:23:59.611Z,3.60
2024-01-31T09:26:26.905Z,3.60
2024-01-31T09:28:53.854Z,3.60
2024-01-31T09:31:25.180Z,3.60
2024-01-31T09:33:54.195Z,3.60
2024-01-31T09:36:21.832Z,3.60
2024-01-31T09:38:49.509Z,3.60
2024-01-31T09:41:17.602Z,3.70
2024-01-31T09:43:46.209Z,3.70
2024-01-31T09:46:14.310Z,3.80
2024-01-31T09:48:41.898Z,3.80
2024-01-31T09:51:10.088Z,3.80
2024-01-31T09:53:38.446Z,3.80
2024-01-31T09:56:08.757Z,3.80
2024-01-31T09:58:36.622Z,3.90
2024-01-31T10:01:10.753Z,3.90
2024-01-31T10:03:44.375Z,4.00
2024-01-31T10:06:12.886Z,4.00
2024-01-31T10:08:40.770Z,4.10
2024-01-31T10:11:08.146Z,4.10
2024-01-31T10:13:35.213Z,4.10
2024-01-31T10:16:02.347Z,4.10
2024-01-31T10:18:30.992Z,4.10
2024-01-31T10:20:58.946Z,4.00
2024-01-31T10:23:27.176Z,4.00
2024-01-31T10:25:54.725Z,4.00
2024-01-31T10:28:23.235Z,4.10
2024-01-31T10:30:50.423Z,4.10
2024-01-31T10:33:18.358Z,4.10
2024-01-31T10:36:24.391Z,4.10
2024-01-31T10:38:34.654Z,4.20
2024-01-31T10:41:03.620Z,4.20
2024-01-31T10:43:32.513Z,4.30
2024-01-31T10:45:59.968Z,4.30
2024-01-31T10:48:30.508Z,4.30
2024-01-31T10:51:00.667Z,4.30
2024-01-31T10:53:30.282Z,4.30
2024-01-31T10:55:59.451Z,4.30
2024-01-31T10:58:28.357Z,4.20
2024-01-31T11:00:55.418Z,4.10
2024-01-31T11:03:24.701Z,4.20
2024-01-31T11:05:53.311Z,4.20
2024-01-31T11:08:21.699Z,4.30
2024-01-31T11:10:49.912Z,4.40
2024-01-31T11:13:17.218Z,4.40
2024-01-31T11:15:45.862Z,4.50
2024-01-31T11:18:17.214Z,4.50
2024-01-31T11:20:49.463Z,4.40
2024-01-31T11:23:29.923Z,4.30
2024-01-31T11:25:57.207Z,4.40
2024-01-31T11:28:27.964Z,4.40
2024-01-31T11:30:56.007Z,4.40
2024-01-31T11:33:23.746Z,4.50
2024-01-31T11:35:52.014Z,4.50
2024-01-31T11:38:21.270Z,4.50
2024-01-31T11:40:48.946Z,4.60
2024-01-31T11:43:17.539Z,4.70
2024-01-31T11:45:45.920Z,4.70
2024-01-31T11:48:15.934Z,4.80
2024-01-31T11:50:43.309Z,4.90
2024-01-31T11:53:10.843Z,4.90
2024-01-31T11:55:38.274Z,5.00
2024-01-31T11:58:05.247Z,5.10
2024-01-31T12:00:32.890Z,5.10
2024-01-31T12:03:00.483Z,5.20
2024-01-31T12:05:27.821Z,5.20
2024-01-31T12:07:59.670Z,5.30
2024-01-31T12:10:29.828Z,5.40
2024-01-31T12:13:00.788Z,5.50
2024-01-31T12:15:28.625Z,5.60
2024-01-31T12:17:56.050Z,5.70
2024-01-31T12:20:23.587Z,5.80
2024-01-31T12:22:50.758Z,6.00
2024-01-31T12:25:17.763Z,6.00
2024-01-31T12:27:46.087Z,6.10
2024-01-31T12:30:13.527Z,6.20
2024-01-31T12:32:40.647Z,6.30
2024-01-31T12:35:08.266Z,6.40
2024-01-31T12:37:35.846Z,6.50
2024-01-31T12:40:02.771Z,6.60
2024-01-31T12:42:30.645Z,6.60
2024-01-31T12:44:58.353Z,6.70
2024-01-31T12:47:26.256Z,6.80
2024-01-31T12:49:53.642Z,6.80
2024-01-31T12:52:25.677Z,6.80
2024-01-31T12:54:53.076Z,6.90
2024-01-31T12:57:20.229Z,6.90
2024-01-31T12:59:51.316Z,6.90
2024-01-31T13:02:18.414Z,6.90
2024-01-31T13:04:45.830Z,6.90
2024-01-31T13:07:13.655Z,6.90
2024-01-31T13:09:41.228Z,6.90
2024-01-31T13:12:11.982Z,7.10
2024-01-31T13:14:40.732Z,8.10
2024-01-31T13:17:07.837Z,9.30
2024-01-31T13:19:36.900Z,9.30
2024-01-31T13:22:04.018Z,9.20
2024-01-31T13:24:32.779Z,9.80
2024-01-31T13:27:00.040Z,9.60
2024-01-31T13:29:27.331Z,9.10
2024-01-31T13:31:54.575Z,8.70
2024-01-31T13:34:22.345Z,8.40
2024-01-31T13:36:50.625Z,8.50
2024-01-31T13:39:18.429Z,9.30
2024-01-31T13:41:45.430Z,9.60
2024-01-31T13:44:12.475Z,9.90
2024-01-31T13:46:40.201Z,10.40
2024-01-31T13:49:07.975Z,10.40
2024-01-31T13:51:36.885Z,10.10
2024-01-31T13:54:04.240Z,10.50
2024-01-31T13:56:31.443Z,10.70
2024-01-31T13:58:58.402Z,10.90
2024-01-31T14:01:25.520Z,11.30
2024-01-31T14:03:52.480Z,11.10
2024-01-31T14:06:19.682Z,11.00
2024-01-31T14:08:46.962Z,10.90
2024-01-31T14:11:21.283Z,10.80
2024-01-31T14:13:49.084Z,10.60
2024-01-31T14:16:16.049Z,10.00
2024-01-31T14:18:43.144Z,9.50
2024-01-31T14:21:17.985Z,9.00
2024-01-31T14:23:48.041Z,8.60
2024-01-31T14:26:18.331Z,8.40
2024-01-31T14:28:45.261Z,8.20
2024-01-31T14:31:12.721Z,8.10
2024-01-31T14:33:40.544Z,8.00
2024-01-31T14:36:11.149Z,8.00
2024-01-31T14:38:39.731Z,7.90
2024-01-31T14:41:08.774Z,7.90
2024-01-31T14:43:35.776Z,7.90
2024-01-31T14:46:03.258Z,7.80
2024-01-31T14:48:30.373Z,7.80
2024-01-31T14:50:57.754Z,7.80
2024-01-31T14:53:25.109Z,7.80
2024-01-31T14:55:53.111Z,7.80
2024-01-31T14:58:20.666Z,7.70
2024-01-31T15:00:47.844Z,7.70
2024-01-31T15:03:15.043Z,7.60
2024-01-31T15:05:42.231Z,7.60
2024-01-31T15:08:09.913Z,7.60
2024-01-31T15:10:37.224Z,7.60
2024-01-31T15:13:04.412Z,7.50
2024-01-31T15:15:33.106Z,7.50
2024-01-31T15:18:00.278Z,7.50
2024-01-31T15:20:27.556Z,7.40
2024-01-31T15:22:54.612Z,7.40
2024-01-31T15:25:22.317Z,7.40
2024-01-31T15:27:50.912Z,7.30
2024-01-31T15:30:18.496Z,7.30
2024-01-31T15:32:45.763Z,7.30
2024-01-31T15:35:13.037Z,7.30
2024-01-31T15:37:40.684Z,7.20
2024-01-31T15:40:10.509Z,7.20
2024-01-31T15:42:37.690Z,7.10
2024-01-31T15:45:06.338Z,7.10
2024-01-31T15:47:36.306Z,7.10
2024-01-31T15:50:05.061Z,7.00
2024-01-31T15:52:32.215Z,7.00
2024-01-31T15:54:59.183Z,7.00
2024-01-31T15:57:26.736Z,6.90
2024-01-31T15:59:55.250Z,6.90
2024-01-31T16:02:22.907Z,6.80
2024-01-31T16:04:50.085Z,6.80
2024-01-31T16:07:19.848Z,6.80
2024-01-31T16:09:46.845Z,6.80
2024-01-31T16:12:14.203Z,6.80
2024-01-31T16:14:41.182Z,6.80
2024-01-31T16:17:08.276Z,6.70
2024-01-31T16:19:36.411Z,6.60
2024-01-31T16:22:04.334Z,6.60
2024-01-31T16:24:32.132Z,6.60
2024-01-31T16:26:59.385Z,6.60
2024-01-31T16:29:26.372Z,6.60
2024-01-31T16:31:54.125Z,6.70
2024-01-31T16:34:23.035Z,6.70
2024-01-31T16:36:53.132Z,6.80
2024-01-31T16:39:20.396Z,6.80
2024-01-31T16:41:52.531Z,6.70
2024-01-31T16:44:20.387Z,6.70
2024-01-31T16:46:47.869Z,6.70
2024-01-31T16:49:15.028Z,6.70
2024-01-31T16:51:46.222Z,6.70
2024-01-31T16:54:14.008Z,6.60
2024-01-31T16:56:42.096Z,6.50
2024-01-31T16:59:09.178Z,6.50
2024-01-31T17:01:37.012Z,6.50
2024-01-31T17:04:04.364Z,6.50
2024-01-31T17:06:31.584Z,6.50
2024-01-31T17:08:58.621Z,6.40
2024-01-31T17:11:25.929Z,6.40
2024-01-31T17:13:53.093Z,6.40
2024-01-31T17:16:22.765Z,6.40
2024-01-31T17:18:50.361Z,6.40
2024-01-31T17:21:17.725Z,6.40
2024-01-31T17:23:44.760Z,6.30
2024-01-31T17:26:11.931Z,6.30
2024-01-31T17:28:39.220Z,6.30
2024-01-31T17:31:06.228Z,6.20
2024-01-31T17:33:33.466Z,6.20
2024-01-31T17:36:00.638Z,6.20
2024-01-31T17:38:27.959Z,6.20
2024-01-31T17:40:55.095Z,6.20
2024-01-31T17:43:25.801Z,6.10
2024-01-31T17:45:54.067Z,6.10
2024-01-31T17:48:21.602Z,6.10
2024-01-31T17:50:48.715Z,6.20
2024-01-31T17:53:16.095Z,6.10
2024-01-31T17:55:43.415Z,6.10
2024-01-31T17:58:10.683Z,6.10
2024-01-31T18:00:38.290Z,6.10
2024-01-31T18:03:05.557Z,6.10
2024-01-31T18:05:32.833Z,6.10
2024-01-31T18:08:00.658Z,6.10
2024-01-31T18:10:27.712Z,6.10
2024-01-31T18:12:54.759Z,6.00
2024-01-31T18:15:23.759Z,6.00
2024-01-31T18:17:52.469Z,6.00
2024-01-31T18:20:19.539Z,6.10
2024-01-31T18:22:46.624Z,6.00
2024-01-31T18:25:13.657Z,6.00
2024-01-31T18:27:42.648Z,6.00
2024-01-31T18:30:11.991Z,6.00
2024-01-31T18:32:39.366Z,6.00
2024-01-31T18:35:07.248Z,5.90
2024-01-31T18:37:35.237Z,5.80
2024-01-31T18:40:02.140Z,5.90
2024-01-31T18:42:29.210Z,5.80
2024-01-31T18:44:56.392Z,5.80
2024-01-31T18:47:23.590Z,5.80
2024-01-31T18:49:51.286Z,5.70
2024-01-31T18:52:18.691Z,5.80
2024-01-31T18:54:45.671Z,5.80
2024-01-31T18:57:15.384Z,5.70
2024-01-31T18:59:43.774Z,5.70
2024-01-31T19:02:10.699Z,5.70
2024-01-31T19:04:38.388Z,5.70
2024-01-31T19:07:05.913Z,5.70
2024-01-31T19:09:32.944Z,5.60
2024-01-31T19:12:00.494Z,5.70
2024-01-31T19:14:28.935Z,5.60
2024-01-31T19:17:00.306Z,5.60
2024-01-31T19:19:29.811Z,5.60
2024-01-31T19:21:56.774Z,5.60
2024-01-31T19:24:23.940Z,5.50
2024-01-31T19:26:54.769Z,5.50
2024-01-31T19:29:21.724Z,5.40
2024-01-31T19:31:49.701Z,5.40
2024-01-31T19:34:17.310Z,5.40
2024-01-31T19:36:47.007Z,5.40
2024-01-31T19:39:17.142Z,5.40
2024-01-31T19:41:46.502Z,5.30
2024-01-31T19:44:17.906Z,5.30
2024-01-31T19:46:55.463Z,5.30
2024-01-31T19:49:23.006Z,5.20
2024-01-31T19:51:51.445Z,5.20
2024-01-31T19:54:19.144Z,5.20
2024-01-31T19:56:46.671Z,5.20
2024-01-31T19:59:14.233Z,5.20
2024-01-31T20:01:41.767Z,5.10
2024-01-31T20:04:12.143Z,5.10
2024-01-31T20:06:40.944Z,5.10
2024-01-31T20:09:11.399Z,5.00
2024-01-31T20:11:38.833Z,5.00
2024-01-31T20:14:08.322Z,4.90
2024-01-31T20:16:35.602Z,4.90
2024-01-31T20:19:04.449Z,4.80
2024-01-31T20:21:32.379Z,4.70
2024-01-31T20:24:01.536Z,4.60
2024-01-31T20:26:30.562Z,4.60
2024-01-31T20:28:58.593Z,4.40
2024-01-31T20:31:25.879Z,4.40
2024-01-31T20:33:54.152Z,4.30
2024-01-31T20:36:21.571Z,4.20
2024-01-31T20:38:51.154Z,4.10
2024-01-31T20:41:18.724Z,4.00
2024-01-31T20:43:46.005Z,3.90
2024-01-31T20:46:23.960Z,3.80
2024-01-31T20:48:51.699Z,3.60
2024-01-31T20:51:19.611Z,3.60
2024-01-31T20:53:52.140Z,3.50
2024-01-31T20:56:25.762Z,3.50
2024-01-31T20:58:54.970Z,3.40
2024-01-31T21:01:22.469Z,3.30
2024-01-31T21:03:52.809Z,3.30
2024-01-31T21:06:20.801Z,3.20
2024-01-31T21:08:48.185Z,3.10
2024-01-31T21:11:18.420Z,3.00
2024-01-31T21:13:45.708Z,3.00
2024-01-31T21:16:12.678Z,2.90
2024-01-31T21:18:40.183Z,2.80
2024-01-31T21:21:08.023Z,2.80
2024-01-31T21:23:35.087Z,2.60
2024-01-31T21:26:02.927Z,2.50
2024-01-31T21:28:29.982Z,2.40
2024-01-31T21:30:56.963Z,2.20
2024-01-31T21:33:24.255Z,2.10
2024-01-31T21:35:54.144Z,2.10
2024-01-31T21:38:22.499Z,2.10
2024-01-31T21:40:49.768Z,2.10
2024-01-31T21:43:16.944Z,2.10
2024-01-31T21:45:43.989Z,2.00
2024-01-31T21:48:11.235Z,2.00
2024-01-31T21:50:38.759Z,2.00
2024-01-31T21:53:06.060Z,1.90
2024-01-31T21:55:35.859Z,1.90
2024-01-31T21:58:02.977Z,1.80
2024-01-31T22:00:30.283Z,1.70
2024-01-31T22:02:57.367Z,1.60
2024-01-31T22:05:24.708Z,1.60
2024-01-31T22:07:51.947Z,1.60
2024-01-31T22:10:19.899Z,1.50
2024-01-31T22:12:46.816Z,1.40
2024-01-31T22:15:14.845Z,1.40
2024-01-31T22:17:42.484Z,1.30
2024-01-31T22:20:17.383Z,1.10
2024-01-31T22:22:44.365Z,1.00
2024-01-31T22:25:11.346Z,0.90
2024-01-31T22:27:38.522Z,0.90
2024-01-31T22:30:06.467Z,0.90
2024-01-31T22:32:35.168Z,0.90
2024-01-31T22:35:03.234Z,0.90
2024-01-31T22:37:30.260Z,0.90
2024-01-31T22:39:57.269Z,0.80
2024-01-31T22:42:24.291Z,0.80
2024-01-31T22:44:51.220Z,0.70
2024-01-31T22:47:18.145Z,0.50
2024-01-31T22:49:45.455Z,0.50
2024-01-31T22:52:13.077Z,0.50
2024-01-31T22:54:47.504Z,0.30
2024-01-31T22:57:21.322Z,0.20
2024-01-31T22:59:48.267Z,0.30
2024-01-31T23:02:15.371Z,0.30
2024-01-31T23:04:42.561Z,0.30
2024-01-31T23:07:09.883Z,0.30
2024-01-31T23:09:36.926Z,0.30
2024-01-31T23:12:04.180Z,0.30
2024-01-31T23:14:31.243Z,0.30
2024-01-31T23:16:58.225Z,0.40
2024-01-31T23:19:25.576Z,0.40
2024-01-31T23:21:52.888Z,0.40
2024-01-31T23:24:22.845Z,0.40
2024-01-31T23:26:50.123Z,0.40
2024-01-31T23:29:17.429Z,0.40
2024-01-31T23:31:44.946Z,0.40
2024-01-31T23:34:12.311Z,0.40
2024-01-31T23:36:39.459Z,0.30
2024-01-31T23:39:07.202Z,0.30
2024-01-31T23:41:34.245Z,0.30
2024-01-31T23:44:01.276Z,0.20
2024-01-31T23:46:28.394Z,0.20
2024-01-31T23:48:55.566Z,0.20
2024-01-31T23:51:23.198Z,0.20
2024-01-31T23:53:50.237Z,0.20
2024-01-31T23:56:24.092Z,0.20
2024-01-31T23:58:51.064Z,0.10
